This is the latest recevied weather packets stored in our database for station/object G6LTT-13. If no packets are shown the sender has not sent any weather packets the latest 10 day(s).
| Time | Temp. | Humidity | Pressure | Rain* | Wind** | Luminosity | Snow |
|---|---|---|---|---|---|---|---|
| 1777629880 | 20.56° C | 35% | 1049 hPa | 0 mm | - | - | - |
| 1777628080 | 19.44° C | 36% | 1049.2 hPa | 0 mm | - | - | - |
| 1777626280 | 18.89° C | 38% | 1049.3 hPa | 0 mm | - | - | - |
| 1777624480 | 17.78° C | 38% | 1049.4 hPa | 0 mm | - | - | - |
| 1777622680 | 16.67° C | 41% | 1049.5 hPa | 0 mm | - | - | - |
| 1777620880 | 15° C | 44% | 1049.3 hPa | 0 mm | - | - | - |
| 1777619080 | 13.33° C | 48% | 1049.4 hPa | 0 mm | - | - | - |
| 1777617280 | 11.67° C | 55% | 1049.3 hPa | 0 mm | - | - | - |
| 1777615480 | 10.56° C | 59% | 1049.4 hPa | 0 mm | - | - | - |
| 1777613680 | 10° C | 60% | 1049.2 hPa | 0 mm | - | - | - |
| 1777611880 | 9.44° C | 61% | 1049 hPa | 0 mm | - | - | - |
| 1777610080 | 9.44° C | 62% | 1048.8 hPa | 0 mm | - | - | - |
| 1777608280 | 9.44° C | 63% | 1048.9 hPa | 0 mm | - | - | - |
| 1777606480 | 10° C | 61% | 1049.1 hPa | 0 mm | - | - | - |
| 1777604680 | 10.56° C | 61% | 1049 hPa | 0 mm | - | - | - |
| 1777602880 | 10° C | 65% | 1049.3 hPa | 0 mm | - | - | - |
| 1777601080 | 10° C | 65% | 1049.3 hPa | 0 mm | - | - | - |
| 1777599280 | 10.56° C | 66% | 1049.4 hPa | 0 mm | - | - | - |
| 1777597480 | 10.56° C | 67% | 1049.5 hPa | 0 mm | - | - | - |
| 1777595680 | 11.11° C | 66% | 1049.7 hPa | 0 mm | - | - | - |
| 1777593880 | 11.11° C | 63% | 1049.8 hPa | 0 mm | - | - | - |
| 1777592080 | 11.67° C | 61% | 1049.6 hPa | 0 mm | - | - | - |
| 1777590280 | 11.67° C | 59% | 1049.3 hPa | 0 mm | - | - | - |
| 1777588480 | 11.67° C | 56% | 1049.8 hPa | 0 mm | - | - | - |
| 1777586680 | 12.22° C | 53% | 1049.7 hPa | 0 mm | - | - | - |
* Rain latest hour (hover to see other rain measurements)
** Current wind speed in m/s (hover to see current wind gust speed)